Date,TemperatureHighF,TemperatureAvgF,TemperatureLowF,DewpointHighF,DewpointAvgF,DewpointLowF,HumidityHigh,HumidityAvg,HumidityLow,PressureMaxIn,PressureMinIn,WindSpeedMaxMPH,WindSpeedAvgMPH,GustSpeedMaxMPH,PrecipitationSumIn
2013-3-1,63,58,53,50,46,40,75,65,56,30.08,29.96,7,2,11,0.00
2013-3-2,59,54,47,45,42,39,87,65,56,30.13,30.03,6,2,16,0.01
2013-3-3,55,48,42,41,37,31,75,66,58,30.21,30.04,7,2,12,0.00
2013-3-4,63,51,40,42,38,31,93,63,44,30.28,30.18,6,1,11,0.00
2013-3-5,72,58,41,62,53,39,99,83,62,30.22,30.09,8,2,11,0.00
2013-3-6,66,59,53,65,49,42,98,71,52,30.19,30.01,10,2,19,0.02
2013-3-7,60,52,44,46,40,34,94,66,42,30.28,30.18,6,1,11,0.00
2013-3-8,69,55,43,51,46,41,99,75,41,30.28,30.19,5,1,8,0.00
2013-3-9,74,60,47,54,49,45,97,71,36,30.26,30.18,6,1,11,0.00
2013-3-10,79,66,57,60,56,53,92,74,46,30.19,30.08,11,2,14,0.00
2013-3-11,75,67,58,63,60,56,94,78,63,30.13,29.92,11,3,18,0.00
2013-3-12,68,63,58,67,60,52,100,90,78,30.10,29.89,10,3,20,0.33
2013-3-13,68,61,57,54,48,41,84,63,41,30.24,30.09,8,2,14,0.00
2013-3-14,61,56,50,53,40,30,81,56,34,30.33,30.22,9,2,14,0.00
2013-3-15,68,55,40,48,42,34,98,66,30,30.34,30.22,6,1,8,0.00
2013-3-16,74,58,46,60,51,44,100,80,39,30.24,30.13,8,1,13,0.00
2013-3-17,76,63,50,62,58,50,100,84,60,30.18,30.04,9,2,14,0.01
2013-3-18,72,67,60,68,64,58,96,89,81,30.07,29.91,9,2,18,0.00
2013-3-19,84,70,61,68,65,61,100,86,59,30.05,29.94,6,1,9,0.00
2013-3-20,71,65,58,66,63,57,100,93,78,30.01,29.85,6,1,8,0.21
2013-3-21,67,58,46,59,45,34,100,67,32,30.05,29.92,5,1,10,0.00
2013-3-22,74,61,44,68,53,42,100,80,43,30.04,29.93,11,2,13,0.15
2013-3-23,77,70,65,73,69,65,100,97,86,30.01,29.84,11,2,16,0.01
2013-3-24,76,71,67,74,71,66,100,97,89,29.85,29.69,11,3,15,0.00
2013-3-25,67,61,56,67,52,42,99,72,48,30.10,29.79,8,2,16,0.00
2013-3-26,58,54,49,47,40,35,69,59,49,30.30,30.09,7,2,16,0.00
2013-3-27,56,49,42,43,37,31,91,63,48,30.39,30.27,6,2,12,0.00
2013-3-28,68,53,40,46,40,32,98,66,32,30.36,30.26,7,1,12,0.00
2013-3-29,75,59,45,51,46,36,98,68,25,30.38,30.25,4,1,11,0.00
2013-3-30,76,61,49,59,54,47,96,79,50,30.30,30.19,11,2,13,0.00
2013-3-31,77,66,55,64,59,54,98,80,55,30.20,30.04,12,2,17,0.00